METAR Formatted Surface Weather Observation
Issued by NWS

Home | Current Version | Previous Version | Text Only | Print | Product List | Glossary On
Versions: 1 2 3 4 5 6 7 8 9 10 11
000
SAUS45 KABQ 270558 COR
MTRTCS
METAR KTCS 270553Z AUTO 02018G26KT 10SM FEW110 27/13 A3014 RMK AO2
PK WND 03026/0553 SLP108 T02670128 10317 20261 53016 TSNO



USA.gov is the U.S. government's official web portal to all federal, state and local government web resources and services.